Time;durP1;ratioP1;P1;durP2;ratioP2;P2;SDS_P1;SDS_P2;PMS_P1;PMS_P2;Temp;Humidity;BMP_temperature;BMP_pressure;BME280_temperature;BME280_humidity;BME280_pressure;Samples;Min_cycle;Max_cycle;Signal;HPM_P1;HPM_P2
2022/05/22 16:23:38;;;;;;;6.87;5.00;;;25.30;99.90;;;;;;2977358;23;20491;-61
2022/05/22 16:26:07;;;;;;;6.13;4.70;;;25.50;99.90;;;;;;5019219;28;20472;-61
2022/05/22 16:28:34;;;;;;;6.00;4.63;;;25.60;99.90;;;;;;5019027;28;20487;-61
2022/05/22 16:31:02;;;;;;;4.90;4.37;;;25.20;99.90;;;;;;5018450;28;20448;-63
2022/05/22 16:33:29;;;;;;;6.03;5.13;;;25.20;99.90;;;;;;5018743;28;20459;-63
2022/05/22 16:35:59;;;;;;;6.00;4.37;;;24.40;99.90;;;;;;5034479;28;20462;-63
2022/05/22 16:38:26;;;;;;;5.70;4.30;;;24.30;99.90;;;;;;5040549;28;20556;-62
2022/05/22 16:40:56;;;;;;;5.20;4.40;;;24.00;99.90;;;;;;5019667;28;20499;-63
2022/05/22 16:43:26;;;;;;;4.17;3.70;;;23.80;99.90;;;;;;5017859;28;20557;-63
2022/05/22 16:45:53;;;;;;;6.77;4.53;;;24.10;99.90;;;;;;5018060;28;20900;-63
2022/05/22 16:53:54;;;;;;;6.83;4.77;;;24.30;99.90;;;;;;5016236;28;20477;-63
2022/05/22 16:56:26;;;;;;;7.20;4.77;;;24.00;99.90;;;;;;5018050;28;20456;-63
2022/05/22 16:58:53;;;;;;;9.60;5.40;;;23.90;99.90;;;;;;5018922;28;20458;-63
2022/05/22 17:01:22;;;;;;;5.03;4.33;;;24.00;99.90;;;;;;5015863;28;20533;-63
2022/05/22 17:03:52;;;;;;;7.70;5.10;;;23.70;99.90;;;;;;5017186;28;20441;-63
2022/05/22 17:06:22;;;;;;;8.10;5.53;;;23.80;99.90;;;;;;5017202;28;20554;-63
2022/05/22 17:08:53;;;;;;;5.77;4.90;;;23.70;99.90;;;;;;5017543;28;20496;-63
2022/05/22 17:11:29;;;;;;;6.50;4.47;;;23.50;99.90;;;;;;5017388;28;20519;-63
2022/05/22 17:14:07;;;;;;;9.77;5.40;;;23.30;99.90;;;;;;5015982;28;20467;-63
2022/05/22 17:16:42;;;;;;;7.37;4.53;;;23.10;99.90;;;;;;5018444;28;20890;-63
2022/05/22 17:19:18;;;;;;;9.70;5.10;;;23.10;99.90;;;;;;5019642;28;20521;-63
2022/05/22 17:21:49;;;;;;;5.70;4.60;;;23.00;99.90;;;;;;5020140;28;20467;-63
2022/05/22 17:24:20;;;;;;;10.73;5.20;;;22.80;99.90;;;;;;5019010;28;20492;-62
2022/05/22 17:26:49;;;;;;;6.13;5.53;;;22.50;99.90;;;;;;5019992;28;20464;-63
2022/05/22 17:29:16;;;;;;;10.30;5.30;;;22.10;99.90;;;;;;5018139;28;20839;-62
2022/05/22 17:31:43;;;;;;;8.10;5.40;;;22.10;99.90;;;;;;5017480;28;20752;-63
2022/05/22 17:34:10;;;;;;;10.60;5.73;;;22.00;99.90;;;;;;5017872;28;20463;-63
2022/05/22 17:36:40;;;;;;;6.53;5.00;;;22.10;99.90;;;;;;5015531;28;20945;-63
2022/05/22 17:39:11;;;;;;;7.33;4.47;;;22.00;99.90;;;;;;5015865;28;20472;-62
2022/05/22 17:41:41;;;;;;;10.80;5.50;;;22.00;99.90;;;;;;5017780;28;20511;-62
2022/05/22 17:44:11;;;;;;;6.33;4.77;;;21.60;99.90;;;;;;5018038;28;20863;-63
2022/05/22 17:46:41;;;;;;;6.80;5.00;;;21.70;99.90;;;;;;5015302;28;20509;-63
2022/05/22 17:49:11;;;;;;;8.53;5.27;;;21.50;99.90;;;;;;5016934;28;20452;-62
2022/05/22 17:51:40;;;;;;;8.80;6.07;;;21.40;99.90;;;;;;5016453;28;20460;-63
2022/05/22 17:54:11;;;;;;;6.10;5.17;;;21.30;99.90;;;;;;5016021;28;20514;-63
2022/05/22 17:56:39;;;;;;;7.33;5.27;;;21.30;99.90;;;;;;5012358;28;20908;-63
2022/05/22 17:59:06;;;;;;;10.57;5.23;;;21.20;99.90;;;;;;5016680;28;20448;-63
2022/05/22 18:01:38;;;;;;;6.50;4.93;;;21.20;99.90;;;;;;5015962;28;20506;-63
2022/05/22 18:04:05;;;;;;;7.40;4.73;;;21.20;99.90;;;;;;5017025;28;20455;-64
2022/05/22 18:06:33;;;;;;;6.97;4.70;;;21.20;99.90;;;;;;5017642;28;20438;-64
2022/05/22 18:09:03;;;;;;;6.13;5.03;;;21.20;99.90;;;;;;5018162;28;20524;-63
2022/05/22 18:17:02;;;;;;;8.17;5.90;;;20.80;99.90;;;;;;4995256;28;20411;-63
2022/05/22 18:19:32;;;;;;;6.17;5.00;;;20.80;99.90;;;;;;5016652;28;20521;-64
2022/05/22 18:22:00;;;;;;;11.60;5.93;;;20.80;99.90;;;;;;5016099;28;20460;-63
2022/05/22 18:27:20;;;;;;;6.83;4.73;;;20.60;99.90;;;;;;5016437;28;20475;-63
2022/05/22 18:29:48;;;;;;;7.67;5.53;;;20.40;99.90;;;;;;5014425;28;20456;-63
2022/05/22 18:32:26;;;;;;;8.83;5.80;;;20.20;99.90;;;;;;5016565;28;20476;-63
2022/05/22 18:34:56;;;;;;;10.97;5.50;;;19.90;99.90;;;;;;5015956;28;20515;-63
2022/05/22 18:37:31;;;;;;;11.13;7.33;;;19.90;99.90;;;;;;5016862;28;20466;-63
2022/05/22 18:39:58;;;;;;;5.60;4.93;;;19.70;99.90;;;;;;5017309;28;20460;-61
2022/05/22 18:42:35;;;;;;;7.03;5.27;;;19.50;99.90;;;;;;5018067;28;20464;-61
2022/05/22 18:45:09;;;;;;;9.83;6.33;;;19.40;99.90;;;;;;5018662;28;20899;-61
2022/05/22 18:47:37;;;;;;;8.80;5.20;;;19.30;99.90;;;;;;5018384;28;20629;-61
2022/05/22 18:50:06;;;;;;;7.50;5.73;;;19.10;99.90;;;;;;5017627;28;20491;-61
2022/05/22 18:52:39;;;;;;;8.90;5.80;;;19.10;99.90;;;;;;5018286;28;20478;-61
2022/05/22 18:55:09;;;;;;;6.47;5.60;;;19.00;99.90;;;;;;5017924;28;20522;-61
2022/05/22 18:57:36;;;;;;;7.00;5.53;;;18.90;99.90;;;;;;5017465;28;20775;-60
2022/05/22 19:00:06;;;;;;;10.20;6.13;;;18.80;99.90;;;;;;5017989;28;20958;-61
2022/05/22 19:02:40;;;;;;;7.37;6.40;;;18.80;99.90;;;;;;5016963;28;20811;-61
2022/05/22 19:07:53;;;;;;;7.27;5.70;;;18.60;99.90;;;;;;5016125;28;20725;-61
2022/05/22 19:10:23;;;;;;;8.87;6.20;;;18.50;99.90;;;;;;5018130;28;20969;-61
2022/05/22 19:12:51;;;;;;;10.57;6.07;;;18.40;99.90;;;;;;5018128;28;20474;-60
2022/05/22 19:15:18;;;;;;;6.80;6.07;;;18.20;99.90;;;;;;5018571;28;20526;-60
2022/05/22 19:18:06;;;;;;;10.13;6.00;;;18.20;99.90;;;;;;5017959;28;20847;-61
2022/05/22 19:20:33;;;;;;;6.30;5.70;;;18.10;99.90;;;;;;5018870;28;20464;-61
2022/05/22 19:23:05;;;;;;;7.80;6.60;;;18.10;99.90;;;;;;5018295;28;20464;-61
2022/05/22 19:25:33;;;;;;;7.97;6.40;;;18.00;99.90;;;;;;5017462;28;20966;-61
2022/05/22 19:28:05;;;;;;;9.97;5.87;;;18.00;99.90;;;;;;5017156;28;20488;-61
2022/05/22 19:30:35;;;;;;;11.33;6.27;;;17.90;99.90;;;;;;5017200;28;20924;-61
2022/05/22 19:33:12;;;;;;;8.00;7.20;;;17.80;99.90;;;;;;5017995;28;20460;-61
2022/05/22 19:35:39;;;;;;;8.73;6.57;;;17.70;99.90;;;;;;5018560;28;20547;-61
2022/05/22 19:38:06;;;;;;;7.43;5.70;;;17.70;99.90;;;;;;5018146;28;20905;-61
2022/05/22 19:40:34;;;;;;;10.40;5.83;;;17.60;99.90;;;;;;5018663;28;20498;-60
2022/05/22 19:45:50;;;;;;;8.30;6.57;;;17.50;99.90;;;;;;5014594;28;20442;-61
2022/05/22 19:48:26;;;;;;;7.23;6.17;;;17.40;99.90;;;;;;4999239;28;20479;-61
2022/05/22 19:50:55;;;;;;;12.07;6.50;;;17.30;99.90;;;;;;5018049;28;20567;-61
2022/05/22 19:53:22;;;;;;;6.53;5.93;;;17.30;99.90;;;;;;5017668;28;20464;-61
2022/05/22 19:58:44;;;;;;;10.17;6.63;;;17.30;99.90;;;;;;5017699;28;20447;-60
2022/05/22 20:01:13;;;;;;;8.50;6.20;;;17.20;99.90;;;;;;5016293;28;20437;-61
2022/05/22 20:03:44;;;;;;;8.30;6.23;;;17.20;99.90;;;;;;5017860;28;20896;-60
2022/05/22 20:06:15;;;;;;;7.20;6.40;;;17.10;99.90;;;;;;5009839;28;20464;-61
2022/05/22 20:08:45;;;;;;;9.70;6.30;;;17.00;99.90;;;;;;5018589;28;20494;-60
2022/05/22 20:11:16;;;;;;;9.93;7.57;;;16.90;99.90;;;;;;5020107;28;20758;-61
2022/05/22 20:13:46;;;;;;;7.87;6.80;;;16.90;99.90;;;;;;5030221;28;20463;-61
2022/05/22 20:16:18;;;;;;;7.57;6.83;;;16.80;99.90;;;;;;5021133;28;20542;-61
2022/05/22 20:18:49;;;;;;;11.47;7.13;;;16.80;99.90;;;;;;5020217;28;20460;-60
2022/05/22 20:21:19;;;;;;;7.07;6.37;;;16.80;99.90;;;;;;5023231;28;20435;-60
2022/05/22 20:23:55;;;;;;;13.73;7.30;;;16.70;99.90;;;;;;5021967;28;20484;-61
2022/05/22 20:26:26;;;;;;;12.73;6.87;;;16.60;99.90;;;;;;5022136;28;20914;-61
2022/05/22 20:28:54;;;;;;;8.50;7.10;;;16.60;99.90;;;;;;5021778;28;20488;-60
2022/05/22 20:31:21;;;;;;;11.87;6.97;;;16.50;99.90;;;;;;5022046;28;20464;-60
2022/05/22 20:33:49;;;;;;;10.77;7.23;;;16.50;99.90;;;;;;5021894;28;20974;-61
2022/05/22 20:36:19;;;;;;;12.23;7.20;;;16.50;99.90;;;;;;5022074;28;20459;-60
2022/05/22 20:38:46;;;;;;;9.63;7.23;;;16.40;99.90;;;;;;5021766;28;20468;-61
2022/05/22 20:41:14;;;;;;;10.70;6.43;;;16.40;99.90;;;;;;5022043;28;20468;-60
2022/05/22 20:43:47;;;;;;;8.93;7.57;;;16.40;99.90;;;;;;5022366;28;20512;-61
2022/05/22 20:46:16;;;;;;;9.27;7.50;;;16.40;99.90;;;;;;5022383;28;20958;-61
2022/05/22 20:48:45;;;;;;;10.30;6.40;;;16.40;99.90;;;;;;5021867;28;20495;-61
2022/05/22 20:51:13;;;;;;;8.13;7.27;;;16.40;99.90;;;;;;5021839;28;20472;-60
2022/05/22 20:53:41;;;;;;;11.10;7.77;;;16.40;99.90;;;;;;5021685;28;20982;-61
2022/05/22 20:59:04;;;;;;;8.53;6.97;;;16.30;99.90;;;;;;5021357;28;20431;-61
2022/05/22 21:01:35;;;;;;;9.33;6.97;;;16.20;99.90;;;;;;5020568;28;20470;-61
2022/05/22 21:04:02;;;;;;;7.43;6.73;;;16.20;99.90;;;;;;5020629;28;20607;-60
2022/05/22 21:06:34;;;;;;;10.67;7.50;;;16.20;99.90;;;;;;5020592;28;20547;-61
2022/05/22 21:09:04;;;;;;;8.37;6.63;;;16.10;99.90;;;;;;5020726;28;20488;-60
2022/05/22 21:11:33;;;;;;;9.43;7.83;;;16.00;99.90;;;;;;5021596;28;20468;-60
2022/05/22 21:14:00;;;;;;;10.03;8.10;;;16.00;99.90;;;;;;5021667;28;20464;-60
2022/05/22 21:16:30;;;;;;;8.53;7.43;;;16.10;99.90;;;;;;5021626;28;20464;-60
2022/05/22 21:19:00;;;;;;;9.53;8.40;;;16.00;99.90;;;;;;5021152;28;20466;-60
2022/05/22 21:21:30;;;;;;;12.63;8.90;;;16.00;99.90;;;;;;5021626;28;20471;-61
2022/05/22 21:29:34;;;;;;;7.80;7.00;;;15.80;1.00;;;;;;5021264;28;20482;-60
2022/05/22 21:32:04;;;;;;;9.63;8.27;;;15.80;1.00;;;;;;5021577;28;20460;-61
2022/05/22 21:34:34;;;;;;;10.43;8.60;;;15.70;1.00;;;;;;5021322;28;20874;-60
2022/05/22 21:37:02;;;;;;;10.03;9.00;;;15.70;1.00;;;;;;5021092;28;21107;-61
2022/05/22 21:39:29;;;;;;;8.70;7.80;;;15.70;1.00;;;;;;5021514;28;20486;-59
2022/05/22 21:41:57;;;;;;;9.90;7.80;;;15.70;1.00;;;;;;5021726;28;20503;-61
2022/05/22 21:44:30;;;;;;;10.33;8.50;;;15.60;1.00;;;;;;5021761;28;20478;-61
2022/05/22 21:47:00;;;;;;;10.57;9.40;;;15.70;1.00;;;;;;5021795;28;20495;-61
2022/05/22 21:49:28;;;;;;;11.97;7.63;;;15.60;1.00;;;;;;5021983;28;20496;-60
2022/05/22 21:51:55;;;;;;;10.33;9.03;;;15.50;1.00;;;;;;5021730;28;20563;-60
2022/05/22 21:54:28;;;;;;;12.70;8.77;;;15.50;1.00;;;;;;5021874;28;20463;-61
2022/05/22 21:57:00;;;;;;;10.20;7.70;;;15.50;1.00;;;;;;5020944;28;20835;-60
2022/05/22 21:59:30;;;;;;;12.10;7.97;;;15.40;1.00;;;;;;5021134;28;20464;-61
2022/05/22 22:01:58;;;;;;;9.67;8.10;;;15.40;1.00;;;;;;5020320;28;20514;-60
2022/05/22 22:04:28;;;;;;;9.00;7.60;;;15.40;1.00;;;;;;5021700;28;20464;-61
2022/05/22 22:06:56;;;;;;;10.40;8.70;;;15.50;1.00;;;;;;5021043;28;20537;-61
2022/05/22 22:09:28;;;;;;;8.33;7.53;;;15.50;1.00;;;;;;5020757;28;20496;-61
2022/05/22 22:11:58;;;;;;;8.87;7.97;;;15.30;1.00;;;;;;5021872;28;20560;-60
2022/05/22 22:14:28;;;;;;;8.63;7.37;;;15.30;1.00;;;;;;5021539;28;20464;-60
2022/05/22 22:16:55;;;;;;;8.13;7.37;;;15.20;1.00;;;;;;5020749;28;20470;-61
2022/05/22 22:19:23;;;;;;;12.73;9.20;;;15.10;1.00;;;;;;5020743;28;20889;-60
2022/05/22 22:21:51;;;;;;;10.40;7.83;;;15.10;1.00;;;;;;5021104;28;20471;-60
2022/05/22 22:24:22;;;;;;;8.57;7.77;;;15.10;1.00;;;;;;5021089;28;20940;-60
2022/05/22 22:26:51;;;;;;;11.00;8.70;;;15.10;1.00;;;;;;5022110;28;20446;-60
2022/05/22 22:29:21;;;;;;;11.13;7.30;;;15.10;1.00;;;;;;5019550;28;20491;-60
2022/05/22 22:31:52;;;;;;;10.40;7.27;;;15.10;1.00;;;;;;5021502;28;20556;-60
2022/05/22 22:34:21;;;;;;;9.40;7.80;;;15.10;1.00;;;;;;5020909;28;20522;-61
2022/05/22 22:36:49;;;;;;;10.17;7.40;;;15.10;1.00;;;;;;5021354;28;20464;-60
2022/05/22 22:39:17;;;;;;;10.20;8.10;;;15.10;1.00;;;;;;5021294;28;20805;-61
2022/05/22 22:41:44;;;;;;;8.53;7.40;;;15.10;1.00;;;;;;5020716;28;20747;-60
2022/05/22 22:44:16;;;;;;;14.80;7.53;;;15.10;1.00;;;;;;5020394;28;20963;-60
2022/05/22 22:46:46;;;;;;;9.63;7.57;;;15.00;1.00;;;;;;5021504;28;20467;-61
2022/05/22 22:49:16;;;;;;;10.20;7.77;;;14.90;1.00;;;;;;5020739;28;20503;-60
2022/05/22 22:51:43;;;;;;;11.60;7.27;;;14.90;1.00;;;;;;5021175;28;20464;-60
2022/05/22 22:59:40;;;;;;;9.10;6.43;;;14.90;1.00;;;;;;5020377;28;20431;-61
2022/05/22 23:02:12;;;;;;;10.13;7.53;;;14.90;1.00;;;;;;5020674;28;20520;-60
2022/05/22 23:04:39;;;;;;;9.77;6.23;;;14.90;1.00;;;;;;5020663;28;20503;-60
2022/05/22 23:07:08;;;;;;;12.30;7.27;;;14.90;1.00;;;;;;5021111;28;20562;-60
2022/05/22 23:09:35;;;;;;;8.03;6.80;;;14.90;1.00;;;;;;5019699;28;20960;-61
2022/05/22 23:12:07;;;;;;;7.97;7.13;;;15.00;1.00;;;;;;5019268;28;20522;-61
2022/05/22 23:14:34;;;;;;;10.63;8.43;;;15.00;1.00;;;;;;5019422;28;20922;-59
2022/05/22 23:17:04;;;;;;;10.07;7.23;;;15.00;1.00;;;;;;5018787;28;20525;-60
2022/05/22 23:19:31;;;;;;;8.20;7.40;;;15.20;1.00;;;;;;5019744;28;20522;-60
2022/05/22 23:21:59;;;;;;;8.40;6.70;;;15.10;1.00;;;;;;5019288;28;20461;-61
2022/05/22 23:24:26;;;;;;;7.33;6.57;;;15.10;1.00;;;;;;5019372;28;20488;-60
2022/05/22 23:26:53;;;;;;;7.13;6.43;;;15.10;1.00;;;;;;5020492;28;20564;-61
2022/05/22 23:29:20;;;;;;;8.33;7.37;;;15.10;1.00;;;;;;5019919;28;20573;-60
2022/05/22 23:31:47;;;;;;;8.77;7.40;;;15.10;1.00;;;;;;5019249;28;20522;-60
2022/05/22 23:34:16;;;;;;;6.80;6.10;;;15.20;1.00;;;;;;5020362;28;20472;-61
2022/05/22 23:36:48;;;;;;;6.90;5.60;;;15.10;1.00;;;;;;5019469;28;20892;-61
2022/05/22 23:39:20;;;;;;;6.10;5.20;;;15.20;1.00;;;;;;5020689;28;20459;-60
2022/05/22 23:41:59;;;;;;;5.90;4.80;;;15.40;1.00;;;;;;5019859;28;20522;-60
2022/05/22 23:44:31;;;;;;;4.50;4.10;;;15.70;1.00;;;;;;5020086;28;20459;-60
2022/05/22 23:46:59;;;;;;;7.10;5.70;;;15.80;99.90;;;;;;5020301;28;20471;-60
2022/05/22 23:49:27;;;;;;;4.93;4.43;;;15.90;99.90;;;;;;5020043;28;20582;-61
2022/05/22 23:51:57;;;;;;;7.77;4.60;;;15.90;99.90;;;;;;5018964;28;20471;-61
2022/05/22 23:54:27;;;;;;;5.50;5.00;;;16.00;99.90;;;;;;5021787;28;20470;-60
2022/05/22 23:56:54;;;;;;;5.10;4.60;;;16.00;99.90;;;;;;5022857;28;20491;-60
2022/05/22 23:59:22;;;;;;;5.33;4.87;;;16.20;99.90;;;;;;5023483;28;20778;-60
